createdAt,value
2019-02-21T00:00:01.888Z,18.90
2019-02-21T00:01:01.816Z,17.70
2019-02-21T00:02:01.815Z,19.00
2019-02-21T00:03:01.791Z,18.80
2019-02-21T00:04:01.786Z,18.40
2019-02-21T00:05:01.790Z,19.30
2019-02-21T00:06:01.769Z,20.10
2019-02-21T00:07:01.783Z,17.70
2019-02-21T00:08:01.733Z,19.50
2019-02-21T00:09:01.762Z,18.40
2019-02-21T00:10:01.744Z,18.50
2019-02-21T00:11:01.711Z,19.90
2019-02-21T00:12:01.693Z,19.70
2019-02-21T00:13:01.679Z,19.30
2019-02-21T00:14:01.709Z,18.70
2019-02-21T00:15:01.658Z,19.00
2019-02-21T00:16:01.659Z,19.50
2019-02-21T00:17:01.639Z,19.50
2019-02-21T00:18:01.636Z,18.80
2019-02-21T00:19:01.655Z,18.20
2019-02-21T00:20:01.606Z,18.70
2019-02-21T00:21:01.612Z,19.50
2019-02-21T00:22:01.590Z,19.30
2019-02-21T00:23:01.586Z,18.70
2019-02-21T00:24:01.593Z,17.90
2019-02-21T00:25:01.562Z,18.80
2019-02-21T00:26:01.571Z,18.30
2019-02-21T00:27:01.559Z,18.30
2019-02-21T00:28:01.530Z,18.60
2019-02-21T00:29:01.527Z,18.80
2019-02-21T00:30:01.523Z,18.00
2019-02-21T00:31:01.477Z,18.30
2019-02-21T00:32:01.541Z,18.00
2019-02-21T00:33:01.463Z,16.70
2019-02-21T00:34:01.489Z,18.40
2019-02-21T00:35:01.439Z,21.50
2019-02-21T00:36:01.435Z,19.60
2019-02-21T00:37:01.414Z,18.10
2019-02-21T00:38:01.408Z,18.50
2019-02-21T00:39:01.459Z,19.70
2019-02-21T00:40:01.402Z,19.20
2019-02-21T00:41:01.375Z,18.20
2019-02-21T00:42:01.385Z,19.40
2019-02-21T00:43:01.357Z,19.30
2019-02-21T00:44:01.350Z,19.40
2019-02-21T00:45:01.355Z,19.20
2019-02-21T00:46:01.311Z,19.20
2019-02-21T00:47:01.303Z,19.00
2019-02-21T00:48:01.320Z,18.70
2019-02-21T00:49:01.331Z,19.40
2019-02-21T00:50:01.270Z,19.60
2019-02-21T00:51:01.263Z,19.30
2019-02-21T00:52:02.783Z,18.40
2019-02-21T00:53:01.264Z,19.50
2019-02-21T00:54:01.227Z,18.90
2019-02-21T00:55:01.233Z,20.40
2019-02-21T01:12:08.941Z,19.30
2019-02-21T01:13:08.945Z,20.20
2019-02-21T01:14:08.906Z,19.30
2019-02-21T01:15:08.904Z,20.70
2019-02-21T01:16:08.891Z,20.30
2019-02-21T01:17:08.875Z,19.40
2019-02-21T01:18:08.885Z,20.50
2019-02-21T01:19:08.853Z,20.00
2019-02-21T01:20:08.860Z,21.00
2019-02-21T01:21:08.832Z,19.70
2019-02-21T01:22:08.819Z,20.80
2019-02-21T01:23:08.895Z,19.10
2019-02-21T01:24:08.844Z,20.20
2019-02-21T01:25:08.782Z,20.10
2019-02-21T01:26:08.773Z,19.60
2019-02-21T01:27:08.772Z,19.30
2019-02-21T01:28:08.757Z,18.80
2019-02-21T01:29:08.779Z,19.80
2019-02-21T01:30:08.741Z,19.40
2019-02-21T01:31:08.743Z,20.20
2019-02-21T01:32:08.707Z,20.30
2019-02-21T01:33:08.766Z,18.70
2019-02-21T01:34:08.703Z,20.60
2019-02-21T01:35:08.693Z,20.60
2019-02-21T01:36:08.727Z,20.50
2019-02-21T01:37:08.670Z,19.20
2019-02-21T01:38:08.643Z,19.30
2019-02-21T01:39:08.651Z,20.60
2019-02-21T01:40:08.632Z,20.60
2019-02-21T01:41:08.638Z,20.80
2019-02-21T01:42:08.611Z,21.10
2019-02-21T01:43:08.607Z,20.30
2019-02-21T01:44:08.575Z,21.00
2019-02-21T01:45:08.572Z,21.30
2019-02-21T01:46:08.605Z,20.10
2019-02-21T01:47:08.541Z,21.30
2019-02-21T01:48:08.538Z,19.80
2019-02-21T01:49:08.516Z,19.40
2019-02-21T01:50:08.511Z,21.10
2019-02-21T01:51:08.565Z,21.40
2019-02-21T01:52:08.483Z,19.00
2019-02-21T01:53:08.516Z,20.30
2019-02-21T01:54:08.465Z,20.20
2019-02-21T01:55:08.475Z,20.70
2019-02-21T01:56:08.471Z,20.80
2019-02-21T01:57:08.434Z,20.40
2019-02-21T01:58:08.428Z,21.20
2019-02-21T01:59:08.438Z,22.20
2019-02-21T02:00:08.434Z,20.60
2019-02-21T02:01:09.087Z,22.50
2019-02-21T02:02:08.400Z,19.20
2019-02-21T02:03:08.384Z,20.30
2019-02-21T02:04:08.365Z,20.20
2019-02-21T02:05:08.349Z,22.70
2019-02-21T02:06:08.326Z,21.50
2019-02-21T02:07:08.339Z,21.30
2019-02-21T02:08:08.306Z,20.60
2019-02-21T02:09:08.308Z,21.60
2019-02-21T02:10:08.300Z,21.90
2019-02-21T02:11:08.314Z,21.70
2019-02-21T02:12:08.278Z,20.70
2019-02-21T02:13:08.262Z,19.40
2019-02-21T02:14:08.268Z,20.40
2019-02-21T02:15:08.254Z,21.00
2019-02-21T02:16:08.227Z,21.00
2019-02-21T02:17:08.240Z,20.80
2019-02-21T02:18:08.199Z,19.90
2019-02-21T02:19:08.192Z,20.40
2019-02-21T02:20:08.194Z,21.10
2019-02-21T02:21:08.165Z,20.80
2019-02-21T02:22:08.183Z,19.80
2019-02-21T02:23:08.148Z,22.00
2019-02-21T02:24:08.139Z,21.60
2019-02-21T02:25:08.118Z,19.30
2019-02-21T02:26:08.130Z,21.60
2019-02-21T02:27:08.123Z,21.20
2019-02-21T02:28:08.098Z,20.50
2019-02-21T02:29:08.099Z,19.30
2019-02-21T02:30:08.089Z,20.50
2019-02-21T02:31:21.527Z,21.90
2019-02-21T02:32:09.756Z,20.60
2019-02-21T02:33:08.047Z,20.90
2019-02-21T02:34:08.031Z,20.10
2019-02-21T02:35:08.022Z,20.90
2019-02-21T02:36:08.013Z,21.30
2019-02-21T02:37:08.007Z,20.40
2019-02-21T02:38:07.986Z,20.90
2019-02-21T02:39:07.982Z,20.00
2019-02-21T02:40:07.958Z,20.80
2019-02-21T02:41:07.943Z,21.60
2019-02-21T02:42:07.943Z,20.50
2019-02-21T02:43:07.955Z,20.80
2019-02-21T02:44:07.933Z,20.00
2019-02-21T02:45:07.913Z,20.10
2019-02-21T02:46:07.908Z,20.60
2019-02-21T02:47:07.874Z,21.60
2019-02-21T02:48:07.900Z,21.30
2019-02-21T02:49:07.865Z,20.50
2019-02-21T02:50:07.855Z,20.20
2019-02-21T02:51:07.862Z,20.90
2019-02-21T02:52:07.818Z,21.30
2019-02-21T02:53:07.819Z,20.10
2019-02-21T02:54:07.796Z,19.60
2019-02-21T02:55:07.804Z,20.70
2019-02-21T02:56:07.789Z,20.00
2019-02-21T02:57:07.779Z,20.80
2019-02-21T02:58:07.758Z,19.60
2019-02-21T02:59:07.772Z,20.00
2019-02-21T03:00:07.732Z,20.10
2019-02-21T03:01:07.714Z,19.60
2019-02-21T03:02:07.755Z,21.20
2019-02-21T03:03:07.692Z,20.40
2019-02-21T03:04:07.711Z,20.00
2019-02-21T03:05:07.677Z,19.50
2019-02-21T03:06:07.657Z,19.20
2019-02-21T03:07:07.660Z,19.60
2019-02-21T03:08:07.655Z,20.70
2019-02-21T03:09:07.676Z,21.10
2019-02-21T03:10:07.613Z,20.50
2019-02-21T03:11:07.599Z,20.30
2019-02-21T03:12:07.590Z,19.70
2019-02-21T03:13:07.601Z,20.90
2019-02-21T03:14:07.577Z,19.30
2019-02-21T03:15:07.628Z,19.70
2019-02-21T03:16:07.569Z,20.40
2019-02-21T03:17:07.534Z,20.50
2019-02-21T03:18:07.523Z,19.50
2019-02-21T03:19:07.513Z,18.90
2019-02-21T03:20:07.517Z,19.30
2019-02-21T03:21:07.516Z,19.90
2019-02-21T03:22:07.498Z,21.30
2019-02-21T03:23:07.491Z,20.00
2019-02-21T03:24:07.467Z,20.40
2019-02-21T03:25:07.454Z,19.20
2019-02-21T03:26:07.483Z,20.60
2019-02-21T03:27:07.445Z,19.70
2019-02-21T03:28:07.425Z,21.30
2019-02-21T03:29:07.408Z,20.40
2019-02-21T03:30:11.932Z,19.80
2019-02-21T03:31:08.386Z,20.90
2019-02-21T03:32:07.399Z,20.50
2019-02-21T03:33:07.388Z,19.80
2019-02-21T03:34:07.353Z,21.80
2019-02-21T03:35:07.369Z,19.60
2019-02-21T03:36:07.334Z,20.40
2019-02-21T03:37:07.315Z,21.20
2019-02-21T03:38:07.324Z,20.80
2019-02-21T03:39:07.502Z,20.50
2019-02-21T03:40:07.282Z,21.00
2019-02-21T03:41:07.320Z,20.10
2019-02-21T03:42:07.271Z,19.90
2019-02-21T03:43:07.305Z,20.50
2019-02-21T03:44:07.257Z,20.60
2019-02-21T03:45:07.245Z,19.30
2019-02-21T03:46:07.224Z,19.70
2019-02-21T03:47:07.233Z,21.70
2019-02-21T03:48:07.210Z,20.10
2019-02-21T03:49:07.187Z,18.90
2019-02-21T03:50:07.206Z,18.70
2019-02-21T03:51:07.164Z,19.70
2019-02-21T03:52:07.185Z,19.30
2019-02-21T03:53:07.141Z,19.00
2019-02-21T03:54:07.146Z,18.50
2019-02-21T03:55:07.140Z,19.70
2019-02-21T03:56:07.109Z,20.60
2019-02-21T03:57:07.120Z,20.10
2019-02-21T03:58:07.091Z,20.20
2019-02-21T03:59:07.123Z,18.40
2019-02-21T04:00:07.089Z,19.40
2019-02-21T04:01:07.058Z,20.80
2019-02-21T04:02:07.062Z,19.60
2019-02-21T04:03:07.042Z,19.60
2019-02-21T04:04:07.041Z,19.90
2019-02-21T04:05:07.017Z,19.30
2019-02-21T04:06:07.026Z,19.40
2019-02-21T04:07:06.986Z,19.00
2019-02-21T04:08:06.994Z,19.90
2019-02-21T04:09:06.994Z,20.40
2019-02-21T04:10:06.953Z,19.30
2019-02-21T04:11:06.944Z,19.50
2019-02-21T04:12:06.939Z,19.50
2019-02-21T04:13:06.920Z,18.70
2019-02-21T04:14:06.933Z,18.60
2019-02-21T04:15:06.912Z,18.90
2019-02-21T04:16:06.892Z,19.20
2019-02-21T04:17:06.895Z,21.10
2019-02-21T04:18:06.990Z,18.40
2019-02-21T04:19:06.853Z,18.90
2019-02-21T04:20:06.850Z,18.90
2019-02-21T04:21:06.833Z,19.60
2019-02-21T04:22:06.865Z,19.10
2019-02-21T04:23:06.847Z,18.90
2019-02-21T04:24:06.803Z,19.10
2019-02-21T04:25:06.789Z,19.80
2019-02-21T04:26:06.778Z,20.10
2019-02-21T04:27:06.799Z,19.30
2019-02-21T04:28:06.758Z,19.00
2019-02-21T04:29:06.754Z,19.40
2019-02-21T04:30:06.772Z,18.90
2019-02-21T04:31:06.761Z,19.20
2019-02-21T04:32:16.662Z,20.80
2019-02-21T04:33:07.703Z,20.20
2019-02-21T04:34:06.695Z,18.80
2019-02-21T04:35:06.700Z,21.40
2019-02-21T04:36:06.677Z,20.10
2019-02-21T04:37:06.694Z,20.10
2019-02-21T04:38:06.697Z,19.60
2019-02-21T04:39:06.655Z,19.40
2019-02-21T04:40:06.653Z,19.30
2019-02-21T04:41:06.644Z,19.10
2019-02-21T04:42:06.657Z,19.70
2019-02-21T04:43:06.623Z,21.20
2019-02-21T04:44:06.601Z,19.60
2019-02-21T04:45:06.625Z,20.40
2019-02-21T04:46:06.579Z,20.30
2019-02-21T04:47:06.568Z,19.80
2019-02-21T04:48:06.588Z,20.50
2019-02-21T04:49:06.536Z,19.70
2019-02-21T04:50:06.569Z,19.30
2019-02-21T04:51:06.522Z,21.30
2019-02-21T04:52:06.523Z,20.30
2019-02-21T04:53:06.515Z,19.70
2019-02-21T04:54:06.497Z,20.30
2019-02-21T04:55:06.549Z,20.10
2019-02-21T04:56:06.477Z,20.50
2019-02-21T04:57:06.456Z,20.00
2019-02-21T04:58:06.444Z,21.60
2019-02-21T04:59:06.763Z,20.00
2019-02-21T05:00:06.483Z,20.60
2019-02-21T05:01:06.424Z,19.90
2019-02-21T05:02:06.403Z,20.70
2019-02-21T05:03:06.405Z,20.90
2019-02-21T05:04:06.396Z,21.20
2019-02-21T05:05:06.390Z,20.90
2019-02-21T05:06:06.375Z,21.50
2019-02-21T05:07:06.351Z,21.10
2019-02-21T05:08:06.358Z,22.10
2019-02-21T05:09:07.510Z,21.80
2019-02-21T05:10:06.340Z,21.60
2019-02-21T05:11:06.349Z,20.30
2019-02-21T05:12:06.300Z,19.70
2019-02-21T05:13:06.290Z,20.30
2019-02-21T05:14:06.293Z,21.60
2019-02-21T05:15:06.262Z,22.20
2019-02-21T05:16:06.297Z,21.80
2019-02-21T05:17:06.252Z,20.20
2019-02-21T05:18:06.234Z,19.50
2019-02-21T05:19:06.223Z,20.50
2019-02-21T05:20:06.232Z,22.20
2019-02-21T05:21:06.240Z,20.40
2019-02-21T05:22:06.200Z,21.30
2019-02-21T05:23:06.185Z,21.30
2019-02-21T05:24:06.180Z,21.40
2019-02-21T05:25:06.193Z,22.50
2019-02-21T05:26:06.180Z,21.10
2019-02-21T05:27:06.136Z,21.10
2019-02-21T05:28:06.131Z,20.30
2019-02-21T05:29:06.119Z,20.90
2019-02-21T05:30:06.114Z,20.00
2019-02-21T05:31:06.140Z,21.10
2019-02-21T05:32:06.110Z,21.50
2019-02-21T05:33:06.081Z,20.40
2019-02-21T05:34:06.077Z,22.40
2019-02-21T05:35:06.055Z,21.40
2019-02-21T05:36:06.075Z,21.40
2019-02-21T05:37:06.059Z,21.50
2019-02-21T05:38:07.777Z,21.70
2019-02-21T05:39:06.018Z,24.10
2019-02-21T05:40:06.017Z,22.90
2019-02-21T05:41:06.016Z,22.60
2019-02-21T05:42:05.995Z,20.70
2019-02-21T05:43:06.004Z,22.20
2019-02-21T05:44:05.971Z,22.30
2019-02-21T05:45:05.980Z,21.80
2019-02-21T05:46:05.937Z,22.60
2019-02-21T05:47:05.928Z,21.90
2019-02-21T05:48:05.970Z,23.70
2019-02-21T05:49:05.918Z,23.40
2019-02-21T05:50:05.907Z,22.90
2019-02-21T05:51:05.882Z,23.00
2019-02-21T05:52:05.898Z,21.20
2019-02-21T05:53:05.866Z,21.70
2019-02-21T05:54:05.869Z,22.70
2019-02-21T05:55:05.851Z,21.80
2019-02-21T05:56:05.838Z,21.90
2019-02-21T05:57:05.875Z,21.70
2019-02-21T05:58:05.808Z,21.70
2019-02-21T05:59:05.800Z,21.80
2019-02-21T06:00:05.796Z,21.50
2019-02-21T06:01:05.808Z,21.30
2019-02-21T06:02:05.769Z,23.40
2019-02-21T06:03:05.761Z,22.00
2019-02-21T06:04:05.791Z,22.90
2019-02-21T06:05:08.664Z,23.30
2019-02-21T06:06:05.729Z,22.20
2019-02-21T06:07:05.714Z,23.20
2019-02-21T06:08:05.710Z,23.50
2019-02-21T06:09:05.753Z,24.50
2019-02-21T06:10:05.688Z,23.30
2019-02-21T06:11:05.747Z,23.00
2019-02-21T06:12:05.674Z,23.40
2019-02-21T06:13:05.652Z,23.10
2019-02-21T06:14:05.655Z,22.40
2019-02-21T06:15:05.758Z,24.50
2019-02-21T06:16:05.653Z,23.00
2019-02-21T06:17:05.619Z,22.80
2019-02-21T06:18:05.629Z,24.10
2019-02-21T06:19:05.653Z,23.40
2019-02-21T06:20:05.583Z,24.00
2019-02-21T06:21:05.568Z,23.00
2019-02-21T06:22:10.722Z,21.50
2019-02-21T06:23:06.560Z,21.80
2019-02-21T06:24:05.547Z,22.80
2019-02-21T06:25:05.545Z,22.20
2019-02-21T06:26:05.529Z,23.30
2019-02-21T06:27:05.544Z,22.80
2019-02-21T06:28:05.490Z,23.60
2019-02-21T06:29:05.485Z,24.20
2019-02-21T06:30:05.498Z,23.80
2019-02-21T06:31:05.460Z,24.10
2019-02-21T06:32:13.824Z,23.40
2019-02-21T06:33:06.432Z,23.30
2019-02-21T06:34:05.426Z,23.40
2019-02-21T06:35:05.467Z,23.90
2019-02-21T06:36:05.401Z,23.40
2019-02-21T06:37:05.418Z,24.10
2019-02-21T06:38:05.392Z,23.60
2019-02-21T06:39:05.367Z,23.90
2019-02-21T06:40:05.381Z,23.60
2019-02-21T06:41:05.452Z,23.60
2019-02-21T06:42:05.366Z,23.80
2019-02-21T06:43:05.361Z,23.30
2019-02-21T06:44:05.316Z,23.90
2019-02-21T06:45:05.304Z,24.10
2019-02-21T06:46:05.303Z,24.80
2019-02-21T06:47:05.279Z,26.70
2019-02-21T06:48:05.297Z,25.70
2019-02-21T06:49:05.261Z,23.70
2019-02-21T06:50:05.275Z,24.30
2019-02-21T06:51:05.264Z,23.40
2019-02-21T06:52:05.226Z,22.80
2019-02-21T06:53:05.234Z,23.70
2019-02-21T06:54:05.238Z,23.40
2019-02-21T06:55:05.192Z,23.20
2019-02-21T06:56:05.225Z,23.80
2019-02-21T06:57:05.187Z,23.80
2019-02-21T06:58:05.194Z,24.00
2019-02-21T06:59:05.193Z,23.50
2019-02-21T07:00:05.140Z,23.80
2019-02-21T07:01:05.158Z,22.70
2019-02-21T07:02:05.117Z,23.10
2019-02-21T07:03:15.218Z,23.60
2019-02-21T07:04:06.127Z,23.80
2019-02-21T07:05:05.088Z,24.70
2019-02-21T07:06:05.092Z,24.60
2019-02-21T07:07:05.073Z,23.50
2019-02-21T07:08:05.054Z,23.80
2019-02-21T07:09:05.079Z,25.40
2019-02-21T07:10:05.028Z,23.70
2019-02-21T07:11:06.497Z,23.50
2019-02-21T07:12:05.034Z,23.80
2019-02-21T07:13:05.003Z,24.10
2019-02-21T07:14:05.072Z,24.40
2019-02-21T07:15:04.978Z,24.10
2019-02-21T07:16:04.972Z,24.30
2019-02-21T07:17:04.956Z,24.60
2019-02-21T07:18:04.969Z,23.30
2019-02-21T07:19:04.965Z,24.70
2019-02-21T07:20:04.955Z,24.10
2019-02-21T07:21:04.919Z,23.60
2019-02-21T07:22:06.280Z,23.60
2019-02-21T07:23:04.921Z,25.30
2019-02-21T07:24:04.894Z,26.90
2019-02-21T07:25:04.906Z,25.50
2019-02-21T07:26:04.884Z,27.70
2019-02-21T07:27:04.881Z,27.00
2019-02-21T07:28:11.798Z,28.90
2019-02-21T07:29:05.872Z,27.80
2019-02-21T07:30:04.828Z,29.30
2019-02-21T07:31:04.817Z,26.70
2019-02-21T07:32:04.837Z,25.70
2019-02-21T07:33:04.798Z,25.90
2019-02-21T07:34:06.981Z,25.60
2019-02-21T07:35:04.805Z,25.90
2019-02-21T07:36:04.767Z,25.70
2019-02-21T07:37:04.756Z,25.60
2019-02-21T07:38:04.746Z,26.50
2019-02-21T07:39:16.468Z,26.90
2019-02-21T07:40:06.733Z,27.00
2019-02-21T07:41:04.819Z,24.60
2019-02-21T07:42:04.708Z,24.60
2019-02-21T07:43:04.701Z,24.60
2019-02-21T07:44:11.985Z,24.40
2019-02-21T07:45:05.807Z,24.10
2019-02-21T07:46:06.875Z,22.90
2019-02-21T07:47:04.654Z,23.70
2019-02-21T07:48:04.655Z,23.20
2019-02-21T07:49:04.648Z,23.20
2019-02-21T07:50:04.617Z,23.10
2019-02-21T07:51:04.675Z,23.80
2019-02-21T07:52:05.572Z,24.10
2019-02-21T07:53:04.599Z,23.60
2019-02-21T07:54:04.584Z,23.50
2019-02-21T07:55:04.604Z,23.50
2019-02-21T07:56:04.564Z,22.90
2019-02-21T07:57:04.537Z,23.20
2019-02-21T07:58:04.542Z,24.10
2019-02-21T07:59:04.560Z,23.40
2019-02-21T08:00:04.629Z,22.70
2019-02-21T08:01:04.550Z,23.00
2019-02-21T08:02:04.534Z,23.80
2019-02-21T08:03:04.483Z,23.20
2019-02-21T08:04:04.465Z,23.60
2019-02-21T08:05:04.512Z,24.20
2019-02-21T08:06:04.488Z,23.60
2019-02-21T08:07:04.450Z,23.80
2019-02-21T08:08:04.425Z,23.80
2019-02-21T08:09:04.634Z,23.50
2019-02-21T08:10:04.500Z,24.40
2019-02-21T08:11:06.997Z,23.40
2019-02-21T08:12:04.375Z,23.00
2019-02-21T08:13:04.392Z,22.80
2019-02-21T08:14:04.397Z,22.90
2019-02-21T08:15:04.379Z,23.20
2019-02-21T08:16:04.328Z,23.50
2019-02-21T08:17:04.315Z,22.50
2019-02-21T08:18:04.310Z,22.50
2019-02-21T08:19:04.354Z,22.50
2019-02-21T08:20:08.343Z,22.20
2019-02-21T08:21:04.270Z,23.00
2019-02-21T08:22:04.265Z,23.50
2019-02-21T08:23:04.308Z,23.40
2019-02-21T08:24:04.239Z,22.50
2019-02-21T08:25:04.230Z,22.50
2019-02-21T08:26:04.221Z,23.40
2019-02-21T08:27:04.217Z,23.60
2019-02-21T08:28:04.219Z,22.40
2019-02-21T08:29:06.144Z,22.10
2019-02-21T08:30:04.320Z,22.00
2019-02-21T08:31:04.160Z,22.30
2019-02-21T08:32:04.183Z,23.10
2019-02-21T08:33:04.179Z,21.00
2019-02-21T08:34:04.520Z,21.60
2019-02-21T08:35:06.754Z,22.60
2019-02-21T08:36:04.112Z,22.20
2019-02-21T08:37:04.095Z,21.80
2019-02-21T08:38:04.105Z,23.00
2019-02-21T08:39:04.110Z,22.00
2019-02-21T08:40:04.060Z,22.10
2019-02-21T08:41:04.046Z,22.10
2019-02-21T08:42:04.044Z,22.50
2019-02-21T08:43:04.245Z,22.40
2019-02-21T08:44:04.032Z,22.10
2019-02-21T08:45:04.012Z,22.80
2019-02-21T08:46:04.332Z,21.80
2019-02-21T08:47:03.974Z,21.40
2019-02-21T08:48:03.961Z,22.30
2019-02-21T08:49:04.001Z,22.30
2019-02-21T08:50:03.956Z,22.70
2019-02-21T08:51:06.077Z,22.30
2019-02-21T08:52:03.955Z,22.10
2019-02-21T08:53:03.938Z,23.10
2019-02-21T08:54:05.675Z,22.00
2019-02-21T08:55:03.888Z,22.80
2019-02-21T08:56:03.889Z,21.60
2019-02-21T08:57:03.897Z,22.70
2019-02-21T08:58:03.850Z,21.90
2019-02-21T08:59:03.857Z,21.70
2019-02-21T09:00:03.825Z,22.40
2019-02-21T09:01:03.834Z,22.20
2019-02-21T09:02:05.113Z,22.50
2019-02-21T09:03:03.787Z,22.30
2019-02-21T09:04:13.373Z,22.20
2019-02-21T09:05:04.799Z,22.00
2019-02-21T09:06:03.759Z,21.20
2019-02-21T09:07:03.783Z,20.40
2019-02-21T09:08:03.747Z,22.00
2019-02-21T09:09:03.720Z,21.60
2019-02-21T09:10:03.710Z,21.40
2019-02-21T09:11:04.193Z,21.40
2019-02-21T09:12:05.638Z,20.30
2019-02-21T09:13:03.668Z,21.20
2019-02-21T09:14:03.670Z,20.30
2019-02-21T09:15:03.663Z,20.30
2019-02-21T09:16:03.663Z,20.80
2019-02-21T09:17:03.642Z,21.00
2019-02-21T09:18:03.604Z,20.60
2019-02-21T09:19:03.596Z,21.90
2019-02-21T09:20:03.615Z,19.50
2019-02-21T09:21:03.589Z,21.00
2019-02-21T09:22:03.645Z,20.10
2019-02-21T09:23:03.545Z,20.50
2019-02-21T09:24:03.529Z,20.80
2019-02-21T09:25:03.551Z,20.70
2019-02-21T09:26:03.521Z,20.30
2019-02-21T09:27:03.538Z,20.10
2019-02-21T09:28:03.485Z,20.90
2019-02-21T09:29:03.476Z,20.60
2019-02-21T09:30:05.172Z,20.80
2019-02-21T09:31:03.548Z,20.00
2019-02-21T09:32:03.434Z,22.00
2019-02-21T09:33:03.476Z,20.60
2019-02-21T09:34:03.407Z,21.20
2019-02-21T09:35:03.435Z,21.10
2019-02-21T09:36:03.392Z,19.60
2019-02-21T09:39:53.595Z,19.10
2019-02-21T09:40:20.795Z,19.70
2019-02-21T09:41:20.784Z,20.20
2019-02-21T09:42:20.775Z,20.20
2019-02-21T09:43:20.779Z,20.80
2019-02-21T09:44:20.747Z,20.00
2019-02-21T09:45:20.762Z,20.50
2019-02-21T09:46:20.723Z,20.10
2019-02-21T09:47:20.731Z,20.00
2019-02-21T09:48:20.709Z,20.70
2019-02-21T09:49:20.705Z,20.20
2019-02-21T09:50:20.709Z,20.30
2019-02-21T09:51:20.669Z,19.90
2019-02-21T09:52:20.653Z,19.00
2019-02-21T09:53:20.661Z,19.90
2019-02-21T09:54:20.640Z,21.20
2019-02-21T09:55:20.733Z,19.50
2019-02-21T09:56:30.013Z,20.50
2019-02-21T09:57:21.605Z,20.60
2019-02-21T09:58:20.610Z,19.80
2019-02-21T09:59:20.632Z,19.90
2019-02-21T10:00:20.590Z,20.10
2019-02-21T10:01:20.542Z,19.80
2019-02-21T10:02:22.979Z,20.60
2019-02-21T10:03:20.537Z,20.50
2019-02-21T10:04:20.516Z,20.50
2019-02-21T10:05:20.635Z,20.00
2019-02-21T10:06:20.578Z,20.30
2019-02-21T10:07:20.474Z,20.50
2019-02-21T10:08:21.971Z,21.30
2019-02-21T10:09:20.450Z,20.10
2019-02-21T10:10:20.579Z,20.50
2019-02-21T10:11:20.418Z,20.40
2019-02-21T10:12:20.407Z,20.60
2019-02-21T10:13:20.435Z,20.40
2019-02-21T10:14:21.554Z,20.80
2019-02-21T10:15:20.374Z,20.00
2019-02-21T10:16:20.384Z,20.40
2019-02-21T10:17:20.349Z,20.20
2019-02-21T10:18:20.365Z,21.00
2019-02-21T10:19:20.326Z,20.50
2019-02-21T10:20:20.311Z,20.20
2019-02-21T10:21:20.297Z,20.90
2019-02-21T10:22:20.329Z,21.00
2019-02-21T10:23:20.414Z,21.60
2019-02-21T10:24:20.261Z,20.10
2019-02-21T10:25:22.937Z,20.90
2019-02-21T10:26:20.271Z,20.80
2019-02-21T10:27:20.248Z,21.80
2019-02-21T10:28:20.220Z,21.10
2019-02-21T10:29:20.209Z,22.20
2019-02-21T10:30:20.192Z,22.00
2019-02-21T10:31:20.222Z,21.60
2019-02-21T10:32:20.166Z,21.00
2019-02-21T10:33:20.180Z,21.90
2019-02-21T10:34:21.876Z,22.30
2019-02-21T10:35:20.137Z,21.20
2019-02-21T10:36:20.166Z,21.20
2019-02-21T10:37:20.116Z,21.50
2019-02-21T10:38:20.098Z,22.00
2019-02-21T10:39:20.093Z,22.50
2019-02-21T10:40:20.082Z,21.90
2019-02-21T10:41:20.092Z,22.90
2019-02-21T10:42:20.092Z,21.30
2019-02-21T10:43:20.083Z,22.60
2019-02-21T10:44:20.039Z,23.00
2019-02-21T10:45:20.024Z,22.40
2019-02-21T10:46:20.015Z,23.60
2019-02-21T10:47:20.030Z,22.40
2019-02-21T10:48:19.984Z,22.90
2019-02-21T10:49:20.047Z,22.60
2019-02-21T10:50:19.981Z,22.40
2019-02-21T10:51:19.953Z,21.60
2019-02-21T10:52:19.986Z,20.80
2019-02-21T10:53:19.966Z,22.10
2019-02-21T10:54:19.918Z,21.90
2019-02-21T10:55:19.906Z,22.20
2019-02-21T10:56:19.924Z,22.10
2019-02-21T10:57:19.902Z,22.20
2019-02-21T10:58:20.022Z,24.60
2019-02-21T10:59:19.895Z,23.10
2019-02-21T11:00:19.848Z,23.70
2019-02-21T11:01:19.835Z,24.70
2019-02-21T11:02:19.825Z,24.00
2019-02-21T11:03:19.849Z,24.10
2019-02-21T11:04:19.821Z,25.70
2019-02-21T11:05:19.805Z,23.80
2019-02-21T11:06:19.781Z,24.40
2019-02-21T11:07:19.767Z,22.50
2019-02-21T11:08:19.785Z,22.60
2019-02-21T11:09:19.750Z,21.80
2019-02-21T11:10:19.737Z,21.80
2019-02-21T11:11:19.731Z,23.30
2019-02-21T11:12:19.709Z,23.90
2019-02-21T11:13:19.730Z,21.90
2019-02-21T11:14:19.687Z,22.90
2019-02-21T11:15:19.756Z,22.90
2019-02-21T11:16:19.666Z,26.70
2019-02-21T11:17:19.655Z,26.10
2019-02-21T11:18:19.680Z,25.90
2019-02-21T11:19:19.656Z,27.20
2019-02-21T11:20:19.639Z,26.80
2019-02-21T11:21:19.694Z,28.10
2019-02-21T11:22:19.597Z,27.40
2019-02-21T11:23:19.585Z,26.60
2019-02-21T11:24:19.603Z,27.60
2019-02-21T11:25:19.563Z,28.70
2019-02-21T11:26:19.571Z,29.00
2019-02-21T11:27:19.547Z,29.20
2019-02-21T11:28:19.530Z,29.40
2019-02-21T11:29:19.527Z,28.40
2019-02-21T11:30:19.503Z,27.70
2019-02-21T11:31:19.546Z,28.70
2019-02-21T11:32:19.482Z,29.00
2019-02-21T11:33:19.485Z,28.50
2019-02-21T11:34:19.461Z,28.50
2019-02-21T11:35:19.449Z,28.80
2019-02-21T11:36:19.463Z,27.90
2019-02-21T11:37:19.426Z,28.80
2019-02-21T11:38:19.419Z,28.10
2019-02-21T11:39:19.402Z,28.50
2019-02-21T11:40:19.401Z,28.20
2019-02-21T11:41:19.421Z,28.80
2019-02-21T11:42:19.365Z,28.00
2019-02-21T11:43:19.368Z,28.60
2019-02-21T11:44:19.343Z,28.40
2019-02-21T11:45:19.341Z,27.60
2019-02-21T11:46:19.364Z,29.60
2019-02-21T11:47:19.344Z,29.00
2019-02-21T11:48:19.305Z,29.10
2019-02-21T11:49:19.288Z,29.00
2019-02-21T11:50:19.287Z,29.30
2019-02-21T11:51:19.298Z,29.90
2019-02-21T11:52:19.291Z,30.20
2019-02-21T11:53:19.243Z,30.90
2019-02-21T11:54:26.517Z,29.80
2019-02-21T11:55:20.229Z,30.30
2019-02-21T11:56:19.232Z,29.00
2019-02-21T11:57:19.199Z,28.40
2019-02-21T11:58:19.223Z,30.20
2019-02-21T11:59:19.175Z,29.20
2019-02-21T12:00:19.163Z,30.50
2019-02-21T12:01:19.154Z,30.30
2019-02-21T12:02:19.163Z,30.10
2019-02-21T12:03:21.264Z,30.30
2019-02-21T12:04:19.145Z,29.60
2019-02-21T12:05:30.249Z,29.40
2019-02-21T12:06:20.090Z,30.10
2019-02-21T12:07:19.125Z,30.40
2019-02-21T12:08:19.188Z,29.10
2019-02-21T12:09:19.057Z,29.40
2019-02-21T12:10:19.057Z,29.80
2019-02-21T12:11:19.040Z,28.70
2019-02-21T12:12:19.062Z,29.30
2019-02-21T12:13:19.012Z,30.10
2019-02-21T12:14:19.046Z,29.10
2019-02-21T12:15:18.993Z,29.50
2019-02-21T12:16:18.976Z,29.10
2019-02-21T12:17:18.999Z,30.10
2019-02-21T12:18:18.957Z,29.60
2019-02-21T12:19:18.969Z,29.80
2019-02-21T12:20:19.000Z,29.50
2019-02-21T12:21:18.921Z,29.50
2019-02-21T12:22:18.950Z,29.30
2019-02-21T12:23:18.895Z,29.50
2019-02-21T12:24:18.887Z,29.30
2019-02-21T12:25:18.878Z,29.90
2019-02-21T12:26:18.871Z,30.40
2019-02-21T12:27:18.889Z,28.90
2019-02-21T12:28:18.841Z,28.90
2019-02-21T12:29:18.826Z,29.10
2019-02-21T12:30:18.826Z,29.70
2019-02-21T12:31:18.835Z,29.30
2019-02-21T12:32:18.792Z,30.30
2019-02-21T12:33:18.791Z,29.30
2019-02-21T12:34:18.785Z,30.20
2019-02-21T12:35:29.352Z,29.60
2019-02-21T12:36:19.788Z,30.40
2019-02-21T12:37:18.738Z,28.10
2019-02-21T12:38:18.726Z,28.80
2019-02-21T12:39:18.713Z,28.60
2019-02-21T12:40:18.706Z,29.10
2019-02-21T12:41:18.706Z,29.90
2019-02-21T12:42:18.704Z,29.30
2019-02-21T12:43:18.668Z,29.90
2019-02-21T12:44:18.656Z,29.80
2019-02-21T12:45:18.650Z,30.40
2019-02-21T12:46:18.636Z,29.70
2019-02-21T12:47:18.654Z,30.10
2019-02-21T12:48:18.633Z,29.60
2019-02-21T12:49:18.604Z,29.60
2019-02-21T12:50:18.588Z,30.60
2019-02-21T12:51:18.583Z,29.20
2019-02-21T12:52:18.599Z,28.50
2019-02-21T12:53:18.557Z,29.60
2019-02-21T12:54:18.541Z,29.80
2019-02-21T12:55:27.102Z,29.20
2019-02-21T12:56:19.519Z,28.20
2019-02-21T12:57:18.539Z,29.20
2019-02-21T12:58:18.557Z,28.80
2019-02-21T12:59:18.492Z,30.30
2019-02-21T13:00:18.487Z,30.50
2019-02-21T13:01:18.461Z,30.00
2019-02-21T13:02:18.449Z,30.90
2019-02-21T13:03:18.470Z,29.90
2019-02-21T13:04:18.429Z,30.50
2019-02-21T13:05:18.416Z,31.10
2019-02-21T13:06:18.422Z,31.00
2019-02-21T13:07:18.402Z,31.00
2019-02-21T13:08:18.428Z,29.60
2019-02-21T13:09:18.371Z,29.90
2019-02-21T13:10:18.391Z,29.60